Time;durP1;ratioP1;P1;durP2;ratioP2;P2;SDS_P1;SDS_P2;PMS_P1;PMS_P2;Temp;Humidity;BMP_temperature;BMP_pressure;BME280_temperature;BME280_humidity;BME280_pressure;Samples;Min_cycle;Max_cycle;Signal;HPM_P1;HPM_P2
2022/01/13 00:01:57;;;;;;;121.15;21.92;;;4.90;99.90;;;;;;4782918;29;20055;-63
2022/01/13 00:04:23;;;;;;;202.75;25.52;;;5.00;99.90;;;;;;4783193;29;20097;-63
2022/01/13 00:06:49;;;;;;;221.38;24.75;;;4.90;99.90;;;;;;4784357;29;20050;-63
2022/01/13 00:09:15;;;;;;;93.72;19.27;;;4.90;99.90;;;;;;4783972;29;20443;-63
2022/01/13 00:11:43;;;;;;;150.20;22.27;;;4.90;99.90;;;;;;4782891;29;20154;-63
2022/01/13 00:16:40;;;;;;;132.00;21.27;;;5.00;99.90;;;;;;4783070;29;20046;-63
2022/01/13 00:22:13;;;;;;;127.72;21.30;;;5.20;99.90;;;;;;4782375;29;20051;-63
2022/01/13 00:24:39;;;;;;;207.45;24.63;;;5.00;99.90;;;;;;4783884;29;20066;-63
2022/01/13 00:27:10;;;;;;;150.00;21.67;;;5.00;99.90;;;;;;4782690;29;20043;-63
2022/01/13 00:29:39;;;;;;;149.43;22.50;;;5.00;99.90;;;;;;4782829;29;20063;-63
2022/01/13 00:32:06;;;;;;;111.53;22.83;;;5.00;99.90;;;;;;4784269;29;20137;-63
2022/01/13 00:34:31;;;;;;;251.13;26.38;;;5.00;99.90;;;;;;4783213;29;20073;-63
2022/01/13 00:36:58;;;;;;;154.40;23.92;;;5.00;99.90;;;;;;4782971;29;20488;-62
2022/01/13 00:39:24;;;;;;;238.25;28.48;;;5.00;99.90;;;;;;4780572;29;20068;-63
2022/01/13 00:41:51;;;;;;;146.63;23.80;;;5.00;99.90;;;;;;4780684;29;20154;-63
2022/01/13 00:44:20;;;;;;;197.98;23.80;;;5.30;99.90;;;;;;4782616;29;20047;-63
2022/01/13 00:46:54;;;;;;;191.80;23.45;;;5.10;99.90;;;;;;4783266;29;20043;-63
2022/01/13 00:49:19;;;;;;;171.75;23.83;;;5.10;99.90;;;;;;4781585;29;20475;-63
2022/01/13 00:51:45;;;;;;;143.60;22.33;;;5.10;99.90;;;;;;4782375;29;20118;-63
2022/01/13 00:54:11;;;;;;;305.58;28.20;;;5.10;99.90;;;;;;4782486;29;20051;-62
2022/01/13 00:56:38;;;;;;;184.88;25.42;;;5.30;99.90;;;;;;4781954;29;20181;-63
2022/01/13 00:59:14;;;;;;;142.20;24.02;;;5.10;99.90;;;;;;4782397;29;20137;-62
2022/01/13 01:01:51;;;;;;;155.40;22.42;;;5.10;99.90;;;;;;4783344;29;20055;-63
2022/01/13 01:04:18;;;;;;;218.32;24.00;;;5.10;99.90;;;;;;4782280;29;20053;-62
2022/01/13 01:06:45;;;;;;;223.40;24.60;;;5.10;99.90;;;;;;4781921;29;20047;-62
2022/01/13 01:09:18;;;;;;;142.98;20.60;;;5.00;99.90;;;;;;4781797;29;20200;-63
2022/01/13 01:11:47;;;;;;;115.00;19.98;;;5.10;99.90;;;;;;4781989;29;20546;-63
2022/01/13 01:14:14;;;;;;;127.63;17.95;;;5.10;99.90;;;;;;4783628;29;20053;-63
2022/01/13 01:16:41;;;;;;;120.00;19.38;;;5.10;99.90;;;;;;4782524;29;20103;-63
2022/01/13 01:19:08;;;;;;;145.95;19.67;;;5.10;99.90;;;;;;4781267;29;20055;-62
2022/01/13 01:26:46;;;;;;;170.07;19.77;;;5.10;99.90;;;;;;4782966;29;20135;-63
2022/01/13 01:29:27;;;;;;;;;;;5.10;99.90;;;;;;4781709;29;20051;-64
2022/01/13 01:31:55;;;;;;;151.57;18.10;;;5.10;99.90;;;;;;4782061;29;20052;-63
2022/01/13 01:36:58;;;;;;;131.13;19.33;;;5.10;99.90;;;;;;4781863;29;20051;-63
2022/01/13 01:39:24;;;;;;;160.30;22.15;;;5.00;99.90;;;;;;4782467;29;20630;-63
2022/01/13 01:41:54;;;;;;;161.93;21.73;;;5.10;99.90;;;;;;4780490;29;20058;-64
2022/01/13 01:44:32;;;;;;;251.98;24.35;;;5.10;99.90;;;;;;4780740;29;20113;-64
2022/01/13 01:46:58;;;;;;;262.88;26.58;;;5.10;99.90;;;;;;4781144;29;20054;-64
2022/01/13 01:49:26;;;;;;;190.70;23.88;;;5.10;99.90;;;;;;4782913;29;20130;-64
2022/01/13 01:51:54;;;;;;;137.23;20.90;;;5.20;99.90;;;;;;4782377;29;20079;-64
2022/01/13 01:54:20;;;;;;;274.20;26.17;;;5.10;99.90;;;;;;4782640;29;20511;-63
2022/01/13 01:56:46;;;;;;;230.70;25.48;;;5.10;99.90;;;;;;4781299;29;20054;-64
2022/01/13 01:59:16;;;;;;;114.68;20.08;;;5.10;99.90;;;;;;4781870;29;20051;-64
2022/01/13 02:01:43;;;;;;;236.95;26.10;;;5.10;99.90;;;;;;4781729;29;20058;-63
2022/01/13 02:04:09;;;;;;;135.82;21.00;;;5.10;99.90;;;;;;4782347;29;20047;-64
2022/01/13 02:06:37;;;;;;;107.40;22.02;;;5.00;99.90;;;;;;4782257;29;20047;-63
2022/01/13 02:09:05;;;;;;;135.00;20.63;;;5.10;99.90;;;;;;4780851;29;20074;-63
2022/01/13 02:11:40;;;;;;;102.88;21.17;;;5.10;99.90;;;;;;4780316;29;20055;-64
2022/01/13 02:14:21;;;;;;;162.00;21.90;;;5.10;99.90;;;;;;4781014;29;20189;-64
2022/01/13 02:16:50;;;;;;;136.13;19.58;;;5.00;99.90;;;;;;4780369;29;20441;-64
2022/01/13 02:19:17;;;;;;;180.77;22.17;;;5.00;99.90;;;;;;4781432;29;20134;-63
2022/01/13 02:21:43;;;;;;;141.88;19.90;;;5.00;99.90;;;;;;4778565;29;20621;-63
2022/01/13 02:24:09;;;;;;;191.57;23.80;;;5.10;99.90;;;;;;4781233;29;20138;-64
2022/01/13 02:26:36;;;;;;;119.47;20.20;;;5.00;99.90;;;;;;4779590;29;20500;-64
2022/01/13 02:29:03;;;;;;;142.93;20.38;;;5.10;99.90;;;;;;4779107;29;20122;-64
2022/01/13 02:31:28;;;;;;;146.35;20.88;;;5.00;99.90;;;;;;4780350;29;20134;-64
2022/01/13 02:33:54;;;;;;;118.65;20.50;;;5.10;99.90;;;;;;4779438;29;20138;-64
2022/01/13 02:36:25;;;;;;;213.40;24.40;;;5.00;99.90;;;;;;4781523;29;20040;-63
2022/01/13 02:38:53;;;;;;;161.07;21.88;;;5.20;99.90;;;;;;4779611;29;20749;-64
2022/01/13 02:41:22;;;;;;;173.13;23.05;;;5.00;99.90;;;;;;4781142;29;20047;-64
2022/01/13 02:43:49;;;;;;;112.90;20.75;;;5.00;99.90;;;;;;4780161;29;20078;-63
2022/01/13 02:46:32;;;;;;;157.80;21.48;;;5.10;99.90;;;;;;4781034;29;20093;-64
2022/01/13 02:48:59;;;;;;;98.75;19.83;;;4.90;99.90;;;;;;4780150;29;20061;-64
2022/01/13 02:51:26;;;;;;;150.98;20.48;;;5.00;99.90;;;;;;4781311;29;20123;-63
2022/01/13 02:53:53;;;;;;;141.95;22.02;;;4.90;99.90;;;;;;4779629;29;20051;-63
2022/01/13 02:56:19;;;;;;;136.85;22.23;;;4.90;99.90;;;;;;4780090;29;20047;-64
2022/01/13 02:58:45;;;;;;;211.52;22.27;;;5.10;99.90;;;;;;4780531;29;20051;-64
2022/01/13 03:01:12;;;;;;;150.25;20.35;;;5.10;99.90;;;;;;4781029;29;20040;-63
2022/01/13 03:03:39;;;;;;;96.72;18.73;;;4.90;99.90;;;;;;4781442;29;20044;-63
2022/01/13 03:06:06;;;;;;;168.63;21.67;;;4.90;99.90;;;;;;4782901;29;20055;-64
2022/01/13 03:08:32;;;;;;;148.63;18.95;;;4.90;99.90;;;;;;4783865;29;20052;-63
2022/01/13 03:10:58;;;;;;;113.13;19.40;;;4.80;99.90;;;;;;4782952;29;20058;-63
2022/01/13 03:13:24;;;;;;;220.93;22.95;;;4.80;99.90;;;;;;4768229;29;20103;-63
2022/01/13 03:15:50;;;;;;;139.63;20.30;;;4.80;99.90;;;;;;4783210;29;20083;-63
2022/01/13 03:18:15;;;;;;;118.25;19.05;;;4.90;99.90;;;;;;4782640;29;20082;-64
2022/01/13 03:20:41;;;;;;;261.60;24.60;;;4.80;99.90;;;;;;4784340;29;20051;-63
2022/01/13 03:23:07;;;;;;;163.50;20.35;;;4.80;99.90;;;;;;4783667;29;20514;-64
2022/01/13 03:25:32;;;;;;;138.75;19.90;;;4.80;99.90;;;;;;4782740;29;20043;-64
2022/01/13 03:28:05;;;;;;;114.88;19.17;;;4.80;99.90;;;;;;4781553;29;20081;-63
2022/01/13 03:30:32;;;;;;;204.23;22.55;;;4.80;99.90;;;;;;4785106;29;20112;-64
2022/01/13 03:33:00;;;;;;;116.88;18.48;;;4.80;99.90;;;;;;4784424;29;20397;-63
2022/01/13 03:35:26;;;;;;;89.25;18.17;;;4.80;99.90;;;;;;4783224;29;20039;-63
2022/01/13 03:37:52;;;;;;;165.60;20.05;;;4.90;99.90;;;;;;4782772;29;20051;-64
2022/01/13 03:40:18;;;;;;;134.70;18.98;;;4.80;99.90;;;;;;4782346;29;20134;-63
2022/01/13 03:42:44;;;;;;;77.05;18.60;;;4.80;99.90;;;;;;4767934;29;20067;-63
2022/01/13 03:45:09;;;;;;;128.70;19.40;;;4.80;99.90;;;;;;4783684;29;20673;-63
2022/01/13 03:47:36;;;;;;;95.68;17.65;;;4.80;99.90;;;;;;4782754;29;20089;-64
2022/01/13 03:50:02;;;;;;;85.63;16.83;;;4.80;99.90;;;;;;4781603;29;20561;-63
2022/01/13 03:52:31;;;;;;;159.02;20.95;;;4.80;99.90;;;;;;4781525;29;20039;-64
2022/01/13 03:55:38;;;;;;;131.30;18.65;;;4.80;99.90;;;;;;4782983;29;20039;-64
2022/01/13 03:58:35;;;;;;;140.18;19.67;;;4.80;99.90;;;;;;4755636;29;20055;-64
2022/01/13 04:01:44;;;;;;;152.40;20.92;;;4.80;99.90;;;;;;4782729;29;20059;-64
2022/01/13 04:04:10;;;;;;;112.88;17.13;;;4.80;99.90;;;;;;4783968;29;20051;-63
2022/01/13 04:06:39;;;;;;;128.63;18.10;;;5.00;99.90;;;;;;4783039;29;20038;-63
2022/01/13 04:09:29;;;;;;;64.57;15.90;;;4.80;99.90;;;;;;4784364;29;20430;-63
2022/01/13 04:11:54;;;;;;;67.03;15.15;;;4.80;99.90;;;;;;4782238;29;20051;-63
2022/01/13 04:14:28;;;;;;;101.75;17.35;;;4.90;99.90;;;;;;4781660;29;20046;-64
2022/01/13 04:16:54;;;;;;;86.63;16.75;;;4.80;99.90;;;;;;4780914;29;20517;-63
2022/01/13 04:19:20;;;;;;;97.78;17.20;;;4.80;99.90;;;;;;4783244;29;20131;-63
2022/01/13 04:21:46;;;;;;;97.18;17.60;;;4.80;99.90;;;;;;4784442;29;20041;-64
2022/01/13 04:24:12;;;;;;;69.47;15.25;;;4.80;99.90;;;;;;4782894;29;20047;-63
2022/01/13 04:26:43;;;;;;;78.20;15.00;;;4.80;99.90;;;;;;4783166;29;20143;-63
2022/01/13 04:31:35;;;;;;;101.95;17.42;;;4.80;99.90;;;;;;4782707;29;20142;-64
2022/01/13 04:34:00;;;;;;;69.88;14.68;;;4.80;99.90;;;;;;4783604;29;20431;-64
2022/01/13 04:36:26;;;;;;;75.68;14.63;;;4.80;99.90;;;;;;4782967;29;20039;-63
2022/01/13 04:38:52;;;;;;;88.15;14.98;;;4.90;99.90;;;;;;4784129;29;20080;-63
2022/01/13 04:41:29;;;;;;;75.47;14.15;;;4.70;99.90;;;;;;4783101;29;20488;-64
2022/01/13 04:43:54;;;;;;;59.08;14.80;;;4.80;99.90;;;;;;4783471;29;20428;-63
2022/01/13 04:46:20;;;;;;;106.82;16.90;;;5.00;99.90;;;;;;4783621;29;20071;-64
2022/01/13 04:48:46;;;;;;;88.70;17.15;;;4.80;99.90;;;;;;4783787;29;20503;-64
2022/01/13 04:51:12;;;;;;;104.28;18.10;;;4.80;99.90;;;;;;4766679;29;20048;-64
2022/01/13 04:53:38;;;;;;;75.15;17.85;;;4.80;99.90;;;;;;4781231;29;20058;-64
2022/01/13 04:56:10;;;;;;;100.55;17.77;;;5.20;99.90;;;;;;4783699;29;20055;-63
2022/01/13 04:58:36;;;;;;;80.63;16.45;;;4.80;99.90;;;;;;4784551;29;20043;-64
2022/01/13 05:01:03;;;;;;;131.73;18.13;;;4.90;99.90;;;;;;4783718;29;20058;-64
2022/01/13 05:03:29;;;;;;;63.20;15.10;;;4.80;99.90;;;;;;4782118;29;20055;-63
2022/01/13 05:05:55;;;;;;;58.70;15.98;;;4.80;99.90;;;;;;4784179;29;20070;-64
2022/01/13 05:08:21;;;;;;;124.65;17.63;;;4.80;99.90;;;;;;4784321;29;20476;-64
2022/01/13 05:10:46;;;;;;;147.68;18.92;;;4.80;99.90;;;;;;4781985;29;20047;-63
2022/01/13 05:13:12;;;;;;;137.90;19.42;;;4.80;99.90;;;;;;4782395;29;20058;-64
2022/01/13 05:15:40;;;;;;;97.60;16.95;;;4.70;99.90;;;;;;4782552;29;20055;-64
2022/01/13 05:18:42;;;;;;;98.63;17.67;;;4.80;99.90;;;;;;4781503;29;20051;-64
2022/01/13 05:21:18;;;;;;;116.25;17.75;;;4.80;99.90;;;;;;4782107;29;20453;-64
2022/01/13 05:23:44;;;;;;;85.57;15.80;;;4.80;99.90;;;;;;4780934;29;20119;-63
2022/01/13 05:26:10;;;;;;;97.90;16.80;;;4.80;99.90;;;;;;4781521;29;20485;-63
2022/01/13 05:28:37;;;;;;;97.20;17.00;;;4.70;99.90;;;;;;4781093;29;20103;-63
2022/01/13 05:31:03;;;;;;;105.47;16.92;;;4.80;99.90;;;;;;4781477;29;20039;-63
2022/01/13 05:33:29;;;;;;;67.30;15.18;;;4.70;99.90;;;;;;4781102;29;20058;-63
2022/01/13 05:35:55;;;;;;;70.25;14.43;;;5.70;99.90;;;;;;4783318;29;20035;-64
2022/01/13 05:38:20;;;;;;;73.28;16.60;;;4.70;99.90;;;;;;4782103;29;20038;-63
2022/01/13 05:40:46;;;;;;;122.90;18.77;;;4.70;99.90;;;;;;4783306;29;20047;-63
2022/01/13 05:43:12;;;;;;;114.22;18.27;;;4.70;99.90;;;;;;4766789;29;20106;-64
2022/01/13 05:45:40;;;;;;;73.88;15.82;;;4.60;99.90;;;;;;4767179;29;20054;-63
2022/01/13 05:48:07;;;;;;;131.73;19.77;;;4.70;99.90;;;;;;4781918;29;20142;-64
2022/01/13 05:50:33;;;;;;;104.40;18.55;;;4.60;99.90;;;;;;4778905;29;20039;-63
2022/01/13 05:52:58;;;;;;;80.38;16.52;;;4.70;99.90;;;;;;4780228;29;20055;-64
2022/01/13 05:55:24;;;;;;;60.45;15.30;;;4.70;99.90;;;;;;4780939;29;20057;-63
2022/01/13 05:57:50;;;;;;;67.93;17.60;;;4.70;99.90;;;;;;4782710;29;20176;-63
2022/01/13 06:00:18;;;;;;;136.77;19.20;;;4.70;99.90;;;;;;4781192;29;20039;-63
2022/01/13 06:02:46;;;;;;;81.45;16.40;;;4.70;99.90;;;;;;4779869;29;20059;-64
2022/01/13 06:05:12;;;;;;;113.13;18.65;;;4.60;99.90;;;;;;4783019;29;20092;-63
2022/01/13 06:07:38;;;;;;;112.45;17.92;;;4.60;99.90;;;;;;4781177;29;20519;-63
2022/01/13 06:10:06;;;;;;;75.50;17.40;;;4.60;99.90;;;;;;4782444;29;20644;-63
2022/01/13 06:12:33;;;;;;;130.95;20.85;;;4.60;99.90;;;;;;4778618;29;20078;-64
2022/01/13 06:15:05;;;;;;;93.72;20.00;;;4.90;99.90;;;;;;4780843;29;20072;-63
2022/01/13 06:17:31;;;;;;;137.07;19.27;;;4.60;99.90;;;;;;4781555;29;20328;-63
2022/01/13 06:19:58;;;;;;;135.68;20.40;;;4.80;99.90;;;;;;4782533;29;20522;-64
2022/01/13 06:22:24;;;;;;;80.22;17.70;;;5.70;99.90;;;;;;4780133;29;20393;-63
2022/01/13 06:24:50;;;;;;;100.57;18.75;;;4.80;99.90;;;;;;4781547;29;20130;-63
2022/01/13 06:27:16;;;;;;;80.15;17.92;;;4.70;99.90;;;;;;4781668;29;20142;-63
2022/01/13 06:29:41;;;;;;;95.68;18.33;;;4.60;99.90;;;;;;4781794;29;20047;-63
2022/01/13 06:32:07;;;;;;;95.05;17.98;;;4.70;99.90;;;;;;4765072;29;20416;-63
2022/01/13 06:34:33;;;;;;;132.43;20.08;;;4.60;99.90;;;;;;4781557;29;20047;-63
2022/01/13 06:36:59;;;;;;;113.50;18.35;;;4.60;99.90;;;;;;4781072;29;20055;-63
2022/01/13 06:39:24;;;;;;;104.55;18.02;;;4.60;99.90;;;;;;4781198;29;20051;-63
2022/01/13 06:41:50;;;;;;;104.05;19.15;;;4.60;99.90;;;;;;4785191;29;20039;-64
2022/01/13 06:44:16;;;;;;;106.22;19.15;;;4.60;99.90;;;;;;4784027;29;20050;-63
2022/01/13 06:46:42;;;;;;;106.53;19.38;;;4.60;99.90;;;;;;4769222;29;20047;-62
2022/01/13 06:49:08;;;;;;;117.07;19.67;;;4.60;99.90;;;;;;4785650;29;20051;-63
2022/01/13 06:51:34;;;;;;;106.53;18.58;;;4.60;99.90;;;;;;4783359;29;20059;-63
2022/01/13 06:53:59;;;;;;;93.78;19.08;;;4.60;99.90;;;;;;4786261;29;20045;-63
2022/01/13 06:56:26;;;;;;;87.80;18.70;;;4.60;99.90;;;;;;4783804;29;20039;-63
2022/01/13 06:58:53;;;;;;;103.47;19.60;;;4.60;99.90;;;;;;4782074;29;20058;-63
2022/01/13 07:01:21;;;;;;;86.95;19.58;;;4.60;99.90;;;;;;4786432;29;20112;-63
2022/01/13 07:03:47;;;;;;;118.15;20.25;;;4.60;99.90;;;;;;4784810;29;20534;-63
2022/01/13 07:06:13;;;;;;;125.40;21.73;;;4.70;99.90;;;;;;4784994;29;20130;-63
2022/01/13 07:08:39;;;;;;;95.18;18.92;;;4.60;99.90;;;;;;4781349;29;20173;-64
2022/01/13 07:11:04;;;;;;;117.72;18.85;;;4.90;99.90;;;;;;4784961;29;20043;-63
2022/01/13 07:13:31;;;;;;;99.15;20.02;;;4.60;99.90;;;;;;4785818;29;20054;-63
2022/01/13 07:15:59;;;;;;;168.85;21.85;;;4.60;99.90;;;;;;4783834;29;20053;-62
2022/01/13 07:18:25;;;;;;;154.68;21.40;;;4.60;99.90;;;;;;4782918;29;20047;-63
2022/01/13 07:20:51;;;;;;;97.75;18.52;;;4.60;99.90;;;;;;4783674;29;20134;-63
2022/01/13 07:23:16;;;;;;;87.85;17.65;;;5.20;99.90;;;;;;4784780;29;20051;-63
2022/01/13 07:25:42;;;;;;;146.00;21.20;;;4.60;99.90;;;;;;4785175;29;20117;-63
2022/01/13 07:28:08;;;;;;;123.68;20.48;;;4.60;99.90;;;;;;4782522;29;20062;-63
2022/01/13 07:30:34;;;;;;;127.43;21.17;;;4.60;99.90;;;;;;4780873;29;20147;-63
2022/01/13 07:33:00;;;;;;;127.38;22.05;;;4.60;99.90;;;;;;4768718;29;20037;-63
2022/01/13 07:35:26;;;;;;;103.18;20.98;;;4.60;99.90;;;;;;4784595;29;20042;-63
2022/01/13 07:37:52;;;;;;;137.30;22.45;;;4.70;99.90;;;;;;4784211;29;20051;-63
2022/01/13 07:40:18;;;;;;;108.57;19.38;;;4.70;99.90;;;;;;4784149;29;20404;-63
2022/01/13 07:42:46;;;;;;;118.50;19.17;;;4.70;99.90;;;;;;4783704;29;20071;-63
2022/01/13 07:45:13;;;;;;;88.85;19.35;;;4.70;99.90;;;;;;4782969;29;20051;-63
2022/01/13 07:47:40;;;;;;;123.43;19.88;;;4.70;99.90;;;;;;4783716;29;20035;-63
2022/01/13 07:50:08;;;;;;;102.07;18.83;;;4.70;99.90;;;;;;4780830;29;20047;-63
2022/01/13 07:52:33;;;;;;;74.18;17.90;;;4.70;99.90;;;;;;4782390;29;20039;-63
2022/01/13 07:54:59;;;;;;;113.32;19.38;;;4.70;99.90;;;;;;4768175;29;20043;-63
2022/01/13 07:57:25;;;;;;;135.70;20.40;;;4.70;99.90;;;;;;4784042;29;20433;-63
2022/01/13 07:59:52;;;;;;;100.90;19.13;;;4.80;99.90;;;;;;4782347;29;20063;-63
2022/01/13 08:02:18;;;;;;;94.15;18.48;;;4.70;99.90;;;;;;4783459;29;20046;-63
2022/01/13 08:04:44;;;;;;;96.88;19.83;;;4.70;99.90;;;;;;4783947;29;20047;-63
2022/01/13 08:07:10;;;;;;;119.70;20.13;;;4.70;99.90;;;;;;4781361;29;20055;-64
2022/01/13 08:09:36;;;;;;;100.70;20.50;;;4.70;99.90;;;;;;4784866;29;20043;-63
2022/01/13 08:12:02;;;;;;;90.55;18.60;;;4.80;99.90;;;;;;4782300;29;20051;-63
2022/01/13 08:14:28;;;;;;;120.07;20.02;;;4.70;99.90;;;;;;4783248;29;20122;-63
2022/01/13 08:16:58;;;;;;;77.22;18.50;;;4.70;99.90;;;;;;4784146;29;20748;-63
2022/01/13 08:22:08;;;;;;;95.00;18.50;;;4.70;99.90;;;;;;4783500;29;20054;-63
2022/01/13 08:24:34;;;;;;;96.57;17.92;;;4.80;99.90;;;;;;4768105;29;20043;-63
2022/01/13 08:27:00;;;;;;;69.97;17.55;;;4.80;99.90;;;;;;4783065;29;20051;-63
2022/01/13 08:29:26;;;;;;;109.68;19.35;;;4.80;99.90;;;;;;4782637;29;20059;-63
2022/01/13 08:31:51;;;;;;;91.55;18.83;;;4.80;99.90;;;;;;4781338;29;20126;-63
2022/01/13 08:34:17;;;;;;;74.80;17.92;;;4.80;99.90;;;;;;4779450;29;20066;-63
2022/01/13 08:36:44;;;;;;;93.80;19.38;;;5.50;99.90;;;;;;4783288;29;20071;-63
2022/01/13 08:39:11;;;;;;;83.05;17.40;;;4.80;99.90;;;;;;4782960;29;20051;-63
2022/01/13 08:41:37;;;;;;;78.75;19.92;;;4.90;99.90;;;;;;4783794;29;20047;-63
2022/01/13 08:44:02;;;;;;;82.97;17.50;;;5.00;99.90;;;;;;4783523;29;20614;-63
2022/01/13 08:46:28;;;;;;;80.30;18.30;;;4.90;99.90;;;;;;4784119;29;20549;-63
2022/01/13 08:48:54;;;;;;;76.00;19.00;;;4.90;99.90;;;;;;4782533;29;20052;-63
2022/01/13 08:51:20;;;;;;;69.05;18.67;;;4.90;99.90;;;;;;4784260;29;20039;-63
2022/01/13 08:53:47;;;;;;;129.68;20.23;;;5.00;99.90;;;;;;4782696;29;20047;-63
2022/01/13 08:56:13;;;;;;;85.18;19.08;;;4.90;99.90;;;;;;4783899;29;20035;-63
2022/01/13 08:58:39;;;;;;;89.90;18.83;;;4.90;99.90;;;;;;4782683;29;20453;-63
2022/01/13 09:01:07;;;;;;;83.57;18.58;;;5.00;99.90;;;;;;4782415;29;20062;-63
2022/01/13 09:03:33;;;;;;;94.32;19.23;;;5.00;99.90;;;;;;4781970;29;20055;-63
2022/01/13 09:05:59;;;;;;;97.22;19.40;;;5.00;99.90;;;;;;4779584;29;20100;-63
2022/01/13 09:08:25;;;;;;;84.50;17.33;;;5.10;99.90;;;;;;4782224;29;20474;-64
2022/01/13 09:10:51;;;;;;;136.02;21.77;;;5.20;99.90;;;;;;4780762;29;20497;-64
2022/01/13 09:13:17;;;;;;;124.95;20.23;;;5.10;99.90;;;;;;4777605;29;20043;-63
2022/01/13 09:15:52;;;;;;;132.10;21.58;;;5.10;99.90;;;;;;4779236;29;20055;-63
2022/01/13 09:18:30;;;;;;;152.23;22.10;;;5.10;99.90;;;;;;4780784;29;20133;-63
2022/01/13 09:20:56;;;;;;;84.13;18.23;;;5.10;99.90;;;;;;4781268;29;20059;-63
2022/01/13 09:23:23;;;;;;;104.32;18.95;;;5.10;99.90;;;;;;4782466;29;20150;-63
2022/01/13 09:25:49;;;;;;;94.53;19.23;;;5.10;99.90;;;;;;4779930;29;20040;-63
2022/01/13 09:28:15;;;;;;;85.13;19.00;;;5.20;99.90;;;;;;4779751;29;20126;-63
2022/01/13 09:30:40;;;;;;;133.93;20.80;;;5.20;99.90;;;;;;4781548;29;20122;-63
2022/01/13 09:33:07;;;;;;;88.70;18.13;;;5.20;99.90;;;;;;4779949;29;20047;-63
2022/01/13 09:35:33;;;;;;;77.45;19.05;;;5.30;99.90;;;;;;4778719;29;20469;-64
2022/01/13 09:38:01;;;;;;;86.43;19.30;;;5.20;99.90;;;;;;4778551;29;20051;-63
2022/01/13 09:40:28;;;;;;;99.38;19.50;;;5.30;99.90;;;;;;4780761;29;20145;-63
2022/01/13 09:42:54;;;;;;;139.27;23.23;;;5.30;99.90;;;;;;4779124;29;20051;-63
2022/01/13 09:45:21;;;;;;;113.43;20.45;;;5.30;99.90;;;;;;4781197;29;20623;-63
2022/01/13 09:47:51;;;;;;;98.30;20.33;;;5.40;99.90;;;;;;4781894;29;20058;-63
2022/01/13 09:50:20;;;;;;;82.20;15.82;;;5.40;99.90;;;;;;4781309;29;20043;-63
2022/01/13 09:52:47;;;;;;;102.97;18.77;;;5.40;99.90;;;;;;4781447;29;20043;-64
2022/01/13 09:55:14;;;;;;;80.82;18.60;;;5.30;99.90;;;;;;4782161;29;20342;-63
2022/01/13 09:57:46;;;;;;;113.97;20.13;;;5.40;99.90;;;;;;4781567;29;20481;-63
2022/01/13 10:00:15;;;;;;;121.38;20.65;;;5.40;99.90;;;;;;4779866;29;20059;-63
2022/01/13 10:02:41;;;;;;;84.90;18.23;;;5.40;99.90;;;;;;4781793;29;20050;-63
2022/01/13 10:05:07;;;;;;;80.45;17.98;;;5.40;99.90;;;;;;4781959;29;20047;-63
2022/01/13 10:07:35;;;;;;;59.25;15.70;;;5.40;99.90;;;;;;4767191;29;20414;-64
2022/01/13 10:10:06;;;;;;;87.15;17.63;;;5.60;99.90;;;;;;4782287;29;20134;-63
2022/01/13 10:12:41;;;;;;;90.45;18.83;;;5.50;99.90;;;;;;4781216;29;20047;-63
2022/01/13 10:17:49;;;;;;;81.43;17.48;;;5.50;99.90;;;;;;4781965;29;20043;-63
2022/01/13 10:20:17;;;;;;;70.82;17.90;;;5.50;99.90;;;;;;4784102;29;20568;-63
2022/01/13 10:22:44;;;;;;;99.80;18.65;;;5.50;99.90;;;;;;4780940;29;20100;-64
2022/01/13 10:25:31;;;;;;;54.45;16.02;;;5.50;99.90;;;;;;4784373;29;20055;-63
2022/01/13 10:28:13;;;;;;;66.53;17.02;;;5.50;99.90;;;;;;4783792;29;20546;-63
2022/01/13 10:30:39;;;;;;;65.72;17.15;;;5.60;99.90;;;;;;4782822;29;20051;-64
2022/01/13 10:33:22;;;;;;;66.35;16.30;;;5.50;99.90;;;;;;4780233;29;20062;-63
2022/01/13 10:35:54;;;;;;;120.00;20.88;;;5.60;99.90;;;;;;4785256;29;20066;-64
2022/01/13 10:38:21;;;;;;;65.85;16.77;;;5.60;99.90;;;;;;4783655;29;20396;-63
2022/01/13 10:40:52;;;;;;;87.28;19.60;;;5.60;99.90;;;;;;4782716;29;20047;-63
2022/01/13 10:43:23;;;;;;;75.93;18.15;;;5.70;99.90;;;;;;4781866;29;20082;-63
2022/01/13 10:45:52;;;;;;;68.32;17.25;;;5.60;99.90;;;;;;4784237;29;20108;-64
2022/01/13 10:48:19;;;;;;;74.32;19.67;;;5.60;99.90;;;;;;4785395;29;20039;-63
2022/01/13 10:51:04;;;;;;;97.15;19.65;;;5.60;99.90;;;;;;4783213;29;20074;-63
2022/01/13 10:53:37;;;;;;;66.07;17.90;;;5.60;99.90;;;;;;4782844;29;20043;-64
2022/01/13 10:56:09;;;;;;;81.50;18.20;;;5.60;99.90;;;;;;4781684;29;20138;-63
2022/01/13 10:58:39;;;;;;;67.97;16.48;;;5.60;99.90;;;;;;4781400;29;20086;-63
2022/01/13 11:01:05;;;;;;;75.82;17.90;;;5.60;99.90;;;;;;4783790;29;20047;-63
2022/01/13 11:03:34;;;;;;;55.75;17.48;;;5.60;99.90;;;;;;4782454;29;20039;-63
2022/01/13 11:06:04;;;;;;;54.97;16.60;;;5.60;99.90;;;;;;4769229;29;20055;-63
2022/01/13 11:08:37;;;;;;;78.82;18.02;;;5.60;99.90;;;;;;4780995;29;20057;-63
2022/01/13 11:11:04;;;;;;;73.68;19.33;;;5.60;99.90;;;;;;4781090;29;20058;-63
2022/01/13 11:13:35;;;;;;;60.60;18.33;;;5.60;99.90;;;;;;4780824;29;20434;-63
2022/01/13 11:16:01;;;;;;;74.38;18.05;;;5.60;99.90;;;;;;4769204;29;20055;-63
2022/01/13 11:18:30;;;;;;;76.85;19.75;;;5.60;99.90;;;;;;4783818;29;20443;-63
2022/01/13 11:20:57;;;;;;;71.03;19.38;;;5.60;99.90;;;;;;4783695;29;20584;-63
2022/01/13 11:23:24;;;;;;;96.07;20.85;;;5.60;99.90;;;;;;4781821;29;20059;-63
2022/01/13 11:25:53;;;;;;;71.85;19.15;;;5.70;99.90;;;;;;4780537;29;20142;-63
2022/01/13 11:28:19;;;;;;;70.80;19.98;;;5.70;99.90;;;;;;4781305;29;20063;-63
2022/01/13 11:30:46;;;;;;;69.07;19.85;;;5.70;99.90;;;;;;4782053;29;20043;-63
2022/01/13 11:33:12;;;;;;;90.82;21.05;;;5.70;99.90;;;;;;4780728;29;20122;-63
2022/01/13 11:35:45;;;;;;;65.60;18.67;;;5.70;99.90;;;;;;4783784;29;20067;-63
2022/01/13 11:38:13;;;;;;;103.95;21.88;;;5.70;99.90;;;;;;4781624;29;20055;-63
2022/01/13 11:40:42;;;;;;;93.28;22.50;;;5.80;99.90;;;;;;4784247;29;20447;-63
2022/01/13 11:43:23;;;;;;;82.65;21.00;;;5.80;99.90;;;;;;4783098;29;20051;-63
2022/01/13 11:45:48;;;;;;;64.50;18.75;;;5.80;99.90;;;;;;4782949;29;20047;-63
2022/01/13 11:48:26;;;;;;;76.65;21.35;;;5.90;99.90;;;;;;4780444;29;20515;-64
2022/01/13 11:51:14;;;;;;;66.80;21.25;;;5.80;99.90;;;;;;4780844;29;20044;-63
2022/01/13 11:53:57;;;;;;;80.93;20.42;;;5.80;99.90;;;;;;4784046;29;20121;-63
2022/01/13 11:56:24;;;;;;;72.15;20.42;;;5.80;99.90;;;;;;4782953;29;20071;-63
2022/01/13 11:58:50;;;;;;;70.53;21.85;;;5.80;99.90;;;;;;4781481;29;20050;-63
2022/01/13 12:01:25;;;;;;;62.95;19.83;;;5.90;99.90;;;;;;4784166;29;20055;-63
2022/01/13 12:03:53;;;;;;;82.20;20.52;;;5.90;99.90;;;;;;4784976;29;20135;-63
2022/01/13 12:06:34;;;;;;;54.15;18.63;;;5.90;99.90;;;;;;4785278;29;20050;-63
2022/01/13 12:09:00;;;;;;;75.95;19.88;;;5.90;99.90;;;;;;4783720;29;20062;-63
2022/01/13 12:11:38;;;;;;;62.97;18.77;;;5.90;99.90;;;;;;4784376;29;20163;-63
2022/01/13 12:14:22;;;;;;;57.10;18.30;;;5.90;99.90;;;;;;4783221;29;20494;-64
2022/01/13 12:16:56;;;;;;;79.53;19.83;;;5.90;99.90;;;;;;4779694;29;20047;-63
2022/01/13 12:19:38;;;;;;;62.72;18.80;;;5.90;99.90;;;;;;4781006;29;20055;-63
2022/01/13 12:22:12;;;;;;;55.58;18.13;;;5.90;99.90;;;;;;4777650;29;20054;-63
2022/01/13 12:24:51;;;;;;;64.25;21.27;;;5.90;99.90;;;;;;4778668;29;20051;-63
2022/01/13 12:27:19;;;;;;;70.30;20.45;;;5.50;99.90;;;;;;4778972;29;20544;-63
2022/01/13 12:29:50;;;;;;;84.22;23.17;;;5.90;99.90;;;;;;4780301;29;20062;-63
2022/01/13 12:32:32;;;;;;;66.47;21.17;;;5.90;99.90;;;;;;4778885;29;20050;-63
2022/01/13 12:34:57;;;;;;;59.22;18.23;;;6.10;99.90;;;;;;4778219;29;20566;-64
2022/01/13 12:37:25;;;;;;;61.55;19.65;;;6.00;99.90;;;;;;4781167;29;20114;-64
2022/01/13 12:40:03;;;;;;;55.33;18.83;;;5.90;99.90;;;;;;4778091;29;20047;-63
2022/01/13 12:42:50;;;;;;;57.00;18.40;;;6.00;99.90;;;;;;4780480;29;20116;-64
2022/01/13 12:45:33;;;;;;;56.95;19.13;;;6.00;99.90;;;;;;4779977;29;20103;-63
2022/01/13 12:48:04;;;;;;;59.63;19.90;;;6.00;99.90;;;;;;4778098;29;20083;-63
2022/01/13 12:50:44;;;;;;;76.75;21.33;;;6.10;99.90;;;;;;4776348;29;20519;-63
2022/01/13 12:53:18;;;;;;;86.78;23.27;;;6.10;99.90;;;;;;4779298;29;20047;-63
2022/01/13 12:56:00;;;;;;;73.82;21.92;;;6.20;99.90;;;;;;4777398;29;20503;-63
2022/01/13 12:58:29;;;;;;;59.58;19.73;;;6.10;99.90;;;;;;4779730;29;20058;-63
2022/01/13 13:01:04;;;;;;;79.70;23.10;;;6.30;99.90;;;;;;4779034;29;20051;-63
2022/01/13 13:03:30;;;;;;;66.30;22.50;;;6.20;99.90;;;;;;4780626;29;20077;-64